sensor_id;sensor_type;location;lat;lon;timestamp;temperature;humidity
40516;DHT22;26216;53.724;9.898;2023-05-10T00:00:54;17.30;57.10
40516;DHT22;26216;53.724;9.898;2023-05-10T00:03:19;17.20;57.10
40516;DHT22;26216;53.724;9.898;2023-05-10T00:05:45;17.20;57.00
40516;DHT22;26216;53.724;9.898;2023-05-10T00:08:11;17.10;57.30
40516;DHT22;26216;53.724;9.898;2023-05-10T00:10:37;17.10;57.00
40516;DHT22;26216;53.724;9.898;2023-05-10T00:13:03;17.10;57.10
40516;DHT22;26216;53.724;9.898;2023-05-10T00:15:29;17.10;57.50
40516;DHT22;26216;53.724;9.898;2023-05-10T00:17:58;17.00;57.60
40516;DHT22;26216;53.724;9.898;2023-05-10T00:20:24;16.90;58.00
40516;DHT22;26216;53.724;9.898;2023-05-10T00:22:49;16.90;58.10
40516;DHT22;26216;53.724;9.898;2023-05-10T00:25:15;16.90;57.70
40516;DHT22;26216;53.724;9.898;2023-05-10T00:27:41;16.90;58.20
40516;DHT22;26216;53.724;9.898;2023-05-10T00:30:07;16.80;58.10
40516;DHT22;26216;53.724;9.898;2023-05-10T00:32:33;16.80;58.00
40516;DHT22;26216;53.724;9.898;2023-05-10T00:34:59;16.80;58.30
40516;DHT22;26216;53.724;9.898;2023-05-10T00:37:25;16.70;58.70
40516;DHT22;26216;53.724;9.898;2023-05-10T00:39:51;16.70;58.20
40516;DHT22;26216;53.724;9.898;2023-05-10T00:42:17;16.70;58.50
40516;DHT22;26216;53.724;9.898;2023-05-10T00:44:42;16.60;57.90
40516;DHT22;26216;53.724;9.898;2023-05-10T00:47:08;16.60;58.20
40516;DHT22;26216;53.724;9.898;2023-05-10T00:49:35;16.60;58.10
40516;DHT22;26216;53.724;9.898;2023-05-10T00:52:01;16.60;58.90
40516;DHT22;26216;53.724;9.898;2023-05-10T00:54:28;16.50;58.60
40516;DHT22;26216;53.724;9.898;2023-05-10T00:56:54;16.50;59.00
40516;DHT22;26216;53.724;9.898;2023-05-10T00:59:22;16.50;58.70
40516;DHT22;26216;53.724;9.898;2023-05-10T01:01:48;16.40;59.00
40516;DHT22;26216;53.724;9.898;2023-05-10T01:04:14;16.40;59.00
40516;DHT22;26216;53.724;9.898;2023-05-10T01:06:41;16.30;59.50
40516;DHT22;26216;53.724;9.898;2023-05-10T01:09:07;16.30;60.00
40516;DHT22;26216;53.724;9.898;2023-05-10T01:11:35;16.30;59.90
40516;DHT22;26216;53.724;9.898;2023-05-10T01:14:01;16.20;59.30
40516;DHT22;26216;53.724;9.898;2023-05-10T01:16:29;16.20;59.50
40516;DHT22;26216;53.724;9.898;2023-05-10T01:18:57;16.20;59.50
40516;DHT22;26216;53.724;9.898;2023-05-10T01:21:43;16.10;59.40
40516;DHT22;26216;53.724;9.898;2023-05-10T01:32:30;16.00;60.30
40516;DHT22;26216;53.724;9.898;2023-05-10T01:35:04;16.00;60.40
40516;DHT22;26216;53.724;9.898;2023-05-10T01:37:45;15.90;60.00
40516;DHT22;26216;53.724;9.898;2023-05-10T01:40:37;15.90;60.90
40516;DHT22;26216;53.724;9.898;2023-05-10T01:43:05;15.80;61.20
40516;DHT22;26216;53.724;9.898;2023-05-10T01:46:05;15.80;60.10
40516;DHT22;26216;53.724;9.898;2023-05-10T01:48:39;15.70;62.20
40516;DHT22;26216;53.724;9.898;2023-05-10T01:51:06;15.80;60.40
40516;DHT22;26216;53.724;9.898;2023-05-10T01:53:36;15.70;60.90
40516;DHT22;26216;53.724;9.898;2023-05-10T01:56:04;15.60;60.60
40516;DHT22;26216;53.724;9.898;2023-05-10T01:58:32;15.60;61.00
40516;DHT22;26216;53.724;9.898;2023-05-10T02:01:01;15.60;60.80
40516;DHT22;26216;53.724;9.898;2023-05-10T02:03:30;15.60;60.80
40516;DHT22;26216;53.724;9.898;2023-05-10T02:05:58;15.60;61.20
40516;DHT22;26216;53.724;9.898;2023-05-10T02:08:24;15.50;61.20
40516;DHT22;26216;53.724;9.898;2023-05-10T02:10:54;15.50;61.30
40516;DHT22;26216;53.724;9.898;2023-05-10T02:13:21;15.50;61.50
40516;DHT22;26216;53.724;9.898;2023-05-10T02:15:49;15.50;61.90
40516;DHT22;26216;53.724;9.898;2023-05-10T02:18:17;15.40;61.50
40516;DHT22;26216;53.724;9.898;2023-05-10T02:20:45;15.40;61.50
40516;DHT22;26216;53.724;9.898;2023-05-10T02:23:13;15.40;61.70
40516;DHT22;26216;53.724;9.898;2023-05-10T02:25:43;15.40;62.60
40516;DHT22;26216;53.724;9.898;2023-05-10T02:28:10;15.30;62.10
40516;DHT22;26216;53.724;9.898;2023-05-10T02:30:38;15.30;62.40
40516;DHT22;26216;53.724;9.898;2023-05-10T02:33:05;15.30;62.50
40516;DHT22;26216;53.724;9.898;2023-05-10T02:35:35;15.30;62.40
40516;DHT22;26216;53.724;9.898;2023-05-10T02:38:01;15.30;62.40
40516;DHT22;26216;53.724;9.898;2023-05-10T02:40:28;15.20;62.40
40516;DHT22;26216;53.724;9.898;2023-05-10T02:42:56;15.20;62.60
40516;DHT22;26216;53.724;9.898;2023-05-10T02:45:27;15.20;62.70
40516;DHT22;26216;53.724;9.898;2023-05-10T02:47:54;15.20;63.20
40516;DHT22;26216;53.724;9.898;2023-05-10T02:50:20;15.20;62.90
40516;DHT22;26216;53.724;9.898;2023-05-10T02:52:50;15.10;63.00
40516;DHT22;26216;53.724;9.898;2023-05-10T02:55:22;15.10;63.10
40516;DHT22;26216;53.724;9.898;2023-05-10T02:58:01;15.10;63.20
40516;DHT22;26216;53.724;9.898;2023-05-10T03:00:27;15.10;63.70
40516;DHT22;26216;53.724;9.898;2023-05-10T03:02:53;15.00;63.40
40516;DHT22;26216;53.724;9.898;2023-05-10T03:05:20;15.00;63.40
40516;DHT22;26216;53.724;9.898;2023-05-10T03:07:46;15.00;63.20
40516;DHT22;26216;53.724;9.898;2023-05-10T03:10:12;15.00;63.00
40516;DHT22;26216;53.724;9.898;2023-05-10T03:16:16;15.00;65.40
40516;DHT22;26216;53.724;9.898;2023-05-10T03:18:54;14.90;63.80
40516;DHT22;26216;53.724;9.898;2023-05-10T03:21:22;14.90;63.90
40516;DHT22;26216;53.724;9.898;2023-05-10T03:24:04;14.90;64.00
40516;DHT22;26216;53.724;9.898;2023-05-10T03:26:32;14.90;63.60
40516;DHT22;26216;53.724;9.898;2023-05-10T03:28:58;14.80;63.80
40516;DHT22;26216;53.724;9.898;2023-05-10T03:31:25;14.80;63.80
40516;DHT22;26216;53.724;9.898;2023-05-10T03:33:52;14.80;64.20
40516;DHT22;26216;53.724;9.898;2023-05-10T03:36:19;14.80;64.00
40516;DHT22;26216;53.724;9.898;2023-05-10T03:38:45;14.80;64.20
40516;DHT22;26216;53.724;9.898;2023-05-10T03:41:11;14.80;64.30
40516;DHT22;26216;53.724;9.898;2023-05-10T03:43:37;14.80;64.60
40516;DHT22;26216;53.724;9.898;2023-05-10T03:46:03;14.80;64.60
40516;DHT22;26216;53.724;9.898;2023-05-10T03:48:30;14.70;64.40
40516;DHT22;26216;53.724;9.898;2023-05-10T03:50:56;14.70;65.40
40516;DHT22;26216;53.724;9.898;2023-05-10T03:53:21;14.70;64.40
40516;DHT22;26216;53.724;9.898;2023-05-10T03:55:48;14.70;64.40
40516;DHT22;26216;53.724;9.898;2023-05-10T03:58:14;14.70;64.80
40516;DHT22;26216;53.724;9.898;2023-05-10T04:00:40;14.70;65.10
40516;DHT22;26216;53.724;9.898;2023-05-10T04:03:11;14.70;64.80
40516;DHT22;26216;53.724;9.898;2023-05-10T04:05:37;14.70;65.20
40516;DHT22;26216;53.724;9.898;2023-05-10T04:08:03;14.70;65.30
40516;DHT22;26216;53.724;9.898;2023-05-10T04:10:29;14.70;65.00
40516;DHT22;26216;53.724;9.898;2023-05-10T04:12:55;14.80;65.10
40516;DHT22;26216;53.724;9.898;2023-05-10T04:15:21;14.70;64.90
40516;DHT22;26216;53.724;9.898;2023-05-10T04:17:48;14.80;65.40
40516;DHT22;26216;53.724;9.898;2023-05-10T04:20:14;14.80;65.30
40516;DHT22;26216;53.724;9.898;2023-05-10T04:22:41;14.80;65.80
40516;DHT22;26216;53.724;9.898;2023-05-10T04:25:07;14.90;65.90
40516;DHT22;26216;53.724;9.898;2023-05-10T04:27:33;14.90;66.60
40516;DHT22;26216;53.724;9.898;2023-05-10T04:29:59;14.90;66.20
40516;DHT22;26216;53.724;9.898;2023-05-10T04:32:25;14.90;65.90
40516;DHT22;26216;53.724;9.898;2023-05-10T04:34:51;14.90;65.90
40516;DHT22;26216;53.724;9.898;2023-05-10T04:37:17;14.90;66.10
40516;DHT22;26216;53.724;9.898;2023-05-10T04:39:44;15.00;66.10
40516;DHT22;26216;53.724;9.898;2023-05-10T04:42:11;15.00;66.20
40516;DHT22;26216;53.724;9.898;2023-05-10T04:44:37;15.00;66.10
40516;DHT22;26216;53.724;9.898;2023-05-10T04:47:04;15.10;66.30
40516;DHT22;26216;53.724;9.898;2023-05-10T04:49:31;15.10;66.00
40516;DHT22;26216;53.724;9.898;2023-05-10T04:51:58;15.10;66.20
40516;DHT22;26216;53.724;9.898;2023-05-10T04:54:24;15.20;66.00
40516;DHT22;26216;53.724;9.898;2023-05-10T04:56:51;15.20;66.70
40516;DHT22;26216;53.724;9.898;2023-05-10T04:59:20;15.20;66.60
40516;DHT22;26216;53.724;9.898;2023-05-10T05:01:46;15.20;66.90
40516;DHT22;26216;53.724;9.898;2023-05-10T05:04:14;15.30;66.60
40516;DHT22;26216;53.724;9.898;2023-05-10T05:06:42;15.40;66.60
40516;DHT22;26216;53.724;9.898;2023-05-10T05:09:10;15.50;67.10
40516;DHT22;26216;53.724;9.898;2023-05-10T05:11:37;15.50;66.90
40516;DHT22;26216;53.724;9.898;2023-05-10T05:14:04;15.60;67.00
40516;DHT22;26216;53.724;9.898;2023-05-10T05:16:32;15.70;67.10
40516;DHT22;26216;53.724;9.898;2023-05-10T05:18:59;15.80;67.00
40516;DHT22;26216;53.724;9.898;2023-05-10T05:21:27;15.90;66.80
40516;DHT22;26216;53.724;9.898;2023-05-10T05:23:56;16.00;66.70
40516;DHT22;26216;53.724;9.898;2023-05-10T05:26:23;16.10;66.60
40516;DHT22;26216;53.724;9.898;2023-05-10T05:28:51;16.20;66.40
40516;DHT22;26216;53.724;9.898;2023-05-10T05:31:20;16.30;66.60
40516;DHT22;26216;53.724;9.898;2023-05-10T05:33:48;16.50;66.60
40516;DHT22;26216;53.724;9.898;2023-05-10T05:36:21;16.50;66.40
40516;DHT22;26216;53.724;9.898;2023-05-10T05:38:48;16.70;66.20
40516;DHT22;26216;53.724;9.898;2023-05-10T05:41:16;16.80;66.20
40516;DHT22;26216;53.724;9.898;2023-05-10T05:43:42;16.90;66.10
40516;DHT22;26216;53.724;9.898;2023-05-10T05:46:12;17.00;66.00
40516;DHT22;26216;53.724;9.898;2023-05-10T05:48:38;17.10;65.80
40516;DHT22;26216;53.724;9.898;2023-05-10T05:51:10;17.20;65.80
40516;DHT22;26216;53.724;9.898;2023-05-10T05:53:39;17.30;66.00
40516;DHT22;26216;53.724;9.898;2023-05-10T05:56:07;17.40;66.00
40516;DHT22;26216;53.724;9.898;2023-05-10T05:58:34;17.60;65.80
40516;DHT22;26216;53.724;9.898;2023-05-10T06:01:03;17.70;65.50
40516;DHT22;26216;53.724;9.898;2023-05-10T06:03:33;17.80;65.30
40516;DHT22;26216;53.724;9.898;2023-05-10T06:06:01;17.90;65.50
40516;DHT22;26216;53.724;9.898;2023-05-10T06:08:34;18.10;65.10
40516;DHT22;26216;53.724;9.898;2023-05-10T06:11:00;18.20;65.00
40516;DHT22;26216;53.724;9.898;2023-05-10T06:13:33;18.30;65.10
40516;DHT22;26216;53.724;9.898;2023-05-10T06:16:10;18.40;64.60
40516;DHT22;26216;53.724;9.898;2023-05-10T06:18:38;18.60;64.60
40516;DHT22;26216;53.724;9.898;2023-05-10T06:21:04;18.70;64.60
40516;DHT22;26216;53.724;9.898;2023-05-10T06:23:32;18.80;64.30
40516;DHT22;26216;53.724;9.898;2023-05-10T06:25:59;18.90;64.60
40516;DHT22;26216;53.724;9.898;2023-05-10T06:28:25;19.00;64.20
40516;DHT22;26216;53.724;9.898;2023-05-10T06:30:56;19.10;64.30
40516;DHT22;26216;53.724;9.898;2023-05-10T06:33:26;19.20;63.90
40516;DHT22;26216;53.724;9.898;2023-05-10T06:35:54;19.30;63.40
40516;DHT22;26216;53.724;9.898;2023-05-10T06:38:23;19.40;63.70
40516;DHT22;26216;53.724;9.898;2023-05-10T06:40:53;19.50;63.70
40516;DHT22;26216;53.724;9.898;2023-05-10T06:43:22;19.60;63.50
40516;DHT22;26216;53.724;9.898;2023-05-10T06:45:51;19.70;63.60
40516;DHT22;26216;53.724;9.898;2023-05-10T06:48:19;19.80;63.60
40516;DHT22;26216;53.724;9.898;2023-05-10T06:50:48;19.90;63.30
40516;DHT22;26216;53.724;9.898;2023-05-10T06:53:15;20.00;62.80
40516;DHT22;26216;53.724;9.898;2023-05-10T06:55:43;20.00;62.40
40516;DHT22;26216;53.724;9.898;2023-05-10T06:58:11;20.10;62.20
40516;DHT22;26216;53.724;9.898;2023-05-10T07:00:39;20.10;62.50
40516;DHT22;26216;53.724;9.898;2023-05-10T07:03:11;20.20;61.70
40516;DHT22;26216;53.724;9.898;2023-05-10T07:05:47;20.20;61.90
40516;DHT22;26216;53.724;9.898;2023-05-10T07:08:13;20.20;61.80
40516;DHT22;26216;53.724;9.898;2023-05-10T07:10:41;20.20;61.80
40516;DHT22;26216;53.724;9.898;2023-05-10T07:13:14;20.20;61.30
40516;DHT22;26216;53.724;9.898;2023-05-10T07:15:42;20.30;61.90
40516;DHT22;26216;53.724;9.898;2023-05-10T07:18:08;20.30;62.10
40516;DHT22;26216;53.724;9.898;2023-05-10T07:20:36;20.30;62.50
40516;DHT22;26216;53.724;9.898;2023-05-10T07:23:06;20.40;62.70
40516;DHT22;26216;53.724;9.898;2023-05-10T07:25:33;20.50;62.70
40516;DHT22;26216;53.724;9.898;2023-05-10T07:28:05;20.60;62.50
40516;DHT22;26216;53.724;9.898;2023-05-10T07:30:44;20.70;62.20
40516;DHT22;26216;53.724;9.898;2023-05-10T07:33:13;20.80;61.40
40516;DHT22;26216;53.724;9.898;2023-05-10T07:35:40;20.90;61.50
40516;DHT22;26216;53.724;9.898;2023-05-10T07:38:16;21.00;62.30
40516;DHT22;26216;53.724;9.898;2023-05-10T07:40:45;21.00;61.50
40516;DHT22;26216;53.724;9.898;2023-05-10T07:43:15;21.10;61.60
40516;DHT22;26216;53.724;9.898;2023-05-10T07:45:52;21.10;61.50
40516;DHT22;26216;53.724;9.898;2023-05-10T07:48:22;21.20;61.20
40516;DHT22;26216;53.724;9.898;2023-05-10T07:50:48;21.30;61.20
40516;DHT22;26216;53.724;9.898;2023-05-10T07:53:22;21.30;61.40
40516;DHT22;26216;53.724;9.898;2023-05-10T07:55:59;21.30;61.20
40516;DHT22;26216;53.724;9.898;2023-05-10T07:58:40;21.40;61.20
40516;DHT22;26216;53.724;9.898;2023-05-10T08:01:10;21.40;60.70
40516;DHT22;26216;53.724;9.898;2023-05-10T08:03:36;21.40;60.80
40516;DHT22;26216;53.724;9.898;2023-05-10T08:06:04;21.50;60.80
40516;DHT22;26216;53.724;9.898;2023-05-10T08:08:33;21.50;61.00
40516;DHT22;26216;53.724;9.898;2023-05-10T08:11:08;21.60;60.80
40516;DHT22;26216;53.724;9.898;2023-05-10T08:13:35;21.60;60.70
40516;DHT22;26216;53.724;9.898;2023-05-10T08:16:03;21.60;60.90
40516;DHT22;26216;53.724;9.898;2023-05-10T08:18:33;21.70;61.10
40516;DHT22;26216;53.724;9.898;2023-05-10T08:21:00;21.70;61.10
40516;DHT22;26216;53.724;9.898;2023-05-10T08:23:31;21.80;60.80
40516;DHT22;26216;53.724;9.898;2023-05-10T08:26:00;21.80;60.40
40516;DHT22;26216;53.724;9.898;2023-05-10T08:28:26;21.80;60.30
40516;DHT22;26216;53.724;9.898;2023-05-10T08:30:52;21.90;60.70
40516;DHT22;26216;53.724;9.898;2023-05-10T08:33:19;21.90;60.50
40516;DHT22;26216;53.724;9.898;2023-05-10T08:35:45;21.90;60.60
40516;DHT22;26216;53.724;9.898;2023-05-10T08:38:10;22.00;60.80
40516;DHT22;26216;53.724;9.898;2023-05-10T08:40:37;22.00;60.70
40516;DHT22;26216;53.724;9.898;2023-05-10T08:43:07;22.10;60.90
40516;DHT22;26216;53.724;9.898;2023-05-10T08:45:38;22.10;60.80
40516;DHT22;26216;53.724;9.898;2023-05-10T08:48:09;22.20;60.80
40516;DHT22;26216;53.724;9.898;2023-05-10T08:50:36;22.20;60.80
40516;DHT22;26216;53.724;9.898;2023-05-10T08:53:06;22.30;60.60
40516;DHT22;26216;53.724;9.898;2023-05-10T08:55:34;22.30;60.70
40516;DHT22;26216;53.724;9.898;2023-05-10T08:58:02;22.40;60.80
40516;DHT22;26216;53.724;9.898;2023-05-10T09:00:29;22.50;60.70
40516;DHT22;26216;53.724;9.898;2023-05-10T09:02:56;22.50;60.40
40516;DHT22;26216;53.724;9.898;2023-05-10T09:05:23;22.60;60.60
40516;DHT22;26216;53.724;9.898;2023-05-10T09:07:49;22.60;60.70
40516;DHT22;26216;53.724;9.898;2023-05-10T09:10:16;22.70;60.30
40516;DHT22;26216;53.724;9.898;2023-05-10T09:12:43;22.70;60.50
40516;DHT22;26216;53.724;9.898;2023-05-10T09:15:11;22.80;60.30
40516;DHT22;26216;53.724;9.898;2023-05-10T09:17:39;22.80;60.20
40516;DHT22;26216;53.724;9.898;2023-05-10T09:20:06;22.90;60.30
40516;DHT22;26216;53.724;9.898;2023-05-10T09:22:33;23.00;60.40
40516;DHT22;26216;53.724;9.898;2023-05-10T09:25:11;23.10;59.90
40516;DHT22;26216;53.724;9.898;2023-05-10T09:27:39;23.10;60.10
40516;DHT22;26216;53.724;9.898;2023-05-10T09:30:07;23.10;59.90
40516;DHT22;26216;53.724;9.898;2023-05-10T09:32:41;23.20;59.70
40516;DHT22;26216;53.724;9.898;2023-05-10T09:35:14;23.20;60.00
40516;DHT22;26216;53.724;9.898;2023-05-10T09:37:42;23.30;60.20
40516;DHT22;26216;53.724;9.898;2023-05-10T09:40:11;23.30;60.30
40516;DHT22;26216;53.724;9.898;2023-05-10T09:42:38;23.40;60.80
40516;DHT22;26216;53.724;9.898;2023-05-10T09:45:04;23.40;61.00
40516;DHT22;26216;53.724;9.898;2023-05-10T09:47:37;23.50;60.60
40516;DHT22;26216;53.724;9.898;2023-05-10T09:50:03;23.50;60.50
40516;DHT22;26216;53.724;9.898;2023-05-10T09:52:31;23.60;60.10
40516;DHT22;26216;53.724;9.898;2023-05-10T09:55:10;23.70;60.70
40516;DHT22;26216;53.724;9.898;2023-05-10T09:57:36;23.70;60.80
40516;DHT22;26216;53.724;9.898;2023-05-10T10:00:03;23.70;60.70
40516;DHT22;26216;53.724;9.898;2023-05-10T10:02:31;23.60;60.10
40516;DHT22;26216;53.724;9.898;2023-05-10T10:05:00;23.50;59.80
40516;DHT22;26216;53.724;9.898;2023-05-10T10:07:26;23.40;59.80
40516;DHT22;26216;53.724;9.898;2023-05-10T10:09:53;23.30;60.20
40516;DHT22;26216;53.724;9.898;2023-05-10T10:12:21;23.30;60.70
40516;DHT22;26216;53.724;9.898;2023-05-10T10:14:51;23.10;60.30
40516;DHT22;26216;53.724;9.898;2023-05-10T10:17:18;23.00;60.50
40516;DHT22;26216;53.724;9.898;2023-05-10T10:19:45;23.00;60.80
40516;DHT22;26216;53.724;9.898;2023-05-10T10:22:12;22.80;60.90
40516;DHT22;26216;53.724;9.898;2023-05-10T10:24:39;22.70;61.50
40516;DHT22;26216;53.724;9.898;2023-05-10T10:27:24;22.50;61.60
40516;DHT22;26216;53.724;9.898;2023-05-10T10:35:47;22.10;63.70
40516;DHT22;26216;53.724;9.898;2023-05-10T10:38:13;21.90;63.10
40516;DHT22;26216;53.724;9.898;2023-05-10T10:40:39;21.70;63.60
40516;DHT22;26216;53.724;9.898;2023-05-10T10:43:25;21.70;64.00
40516;DHT22;26216;53.724;9.898;2023-05-10T10:48:36;21.40;65.80
40516;DHT22;26216;53.724;9.898;2023-05-10T10:51:02;21.30;65.50
40516;DHT22;26216;53.724;9.898;2023-05-10T10:53:30;21.30;65.90
40516;DHT22;26216;53.724;9.898;2023-05-10T10:56:12;21.20;66.30
40516;DHT22;26216;53.724;9.898;2023-05-10T10:58:41;21.00;66.80
40516;DHT22;26216;53.724;9.898;2023-05-10T11:01:17;20.90;66.50
40516;DHT22;26216;53.724;9.898;2023-05-10T11:06:31;20.90;69.90
40516;DHT22;26216;53.724;9.898;2023-05-10T11:09:09;20.80;68.00
40516;DHT22;26216;53.724;9.898;2023-05-10T11:11:36;20.80;68.90
40516;DHT22;26216;53.724;9.898;2023-05-10T11:14:13;20.70;68.70
40516;DHT22;26216;53.724;9.898;2023-05-10T11:16:43;20.70;69.10
40516;DHT22;26216;53.724;9.898;2023-05-10T11:19:12;20.70;69.80
40516;DHT22;26216;53.724;9.898;2023-05-10T11:21:49;20.70;70.10
40516;DHT22;26216;53.724;9.898;2023-05-10T11:24:20;20.70;71.20
40516;DHT22;26216;53.724;9.898;2023-05-10T11:26:49;20.70;70.80
40516;DHT22;26216;53.724;9.898;2023-05-10T11:29:17;20.70;70.70
40516;DHT22;26216;53.724;9.898;2023-05-10T11:31:44;20.80;70.90
40516;DHT22;26216;53.724;9.898;2023-05-10T11:34:11;20.80;71.10
40516;DHT22;26216;53.724;9.898;2023-05-10T11:36:37;20.90;71.10
40516;DHT22;26216;53.724;9.898;2023-05-10T11:39:03;20.90;71.30
40516;DHT22;26216;53.724;9.898;2023-05-10T11:41:30;21.00;71.40
40516;DHT22;26216;53.724;9.898;2023-05-10T11:43:57;21.00;71.40
40516;DHT22;26216;53.724;9.898;2023-05-10T11:46:25;21.00;71.20
40516;DHT22;26216;53.724;9.898;2023-05-10T11:49:02;21.00;71.10
40516;DHT22;26216;53.724;9.898;2023-05-10T11:51:36;21.00;71.00
40516;DHT22;26216;53.724;9.898;2023-05-10T11:54:06;21.00;71.50
40516;DHT22;26216;53.724;9.898;2023-05-10T11:56:33;20.90;71.50
40516;DHT22;26216;53.724;9.898;2023-05-10T11:58:59;20.90;71.40
40516;DHT22;26216;53.724;9.898;2023-05-10T12:01:28;20.90;71.40
40516;DHT22;26216;53.724;9.898;2023-05-10T12:03:55;20.80;72.00
40516;DHT22;26216;53.724;9.898;2023-05-10T12:06:28;20.80;72.20
40516;DHT22;26216;53.724;9.898;2023-05-10T12:08:55;20.80;72.30
40516;DHT22;26216;53.724;9.898;2023-05-10T12:11:25;20.80;72.00
40516;DHT22;26216;53.724;9.898;2023-05-10T12:13:51;20.80;72.60
40516;DHT22;26216;53.724;9.898;2023-05-10T12:18:51;20.80;72.70
40516;DHT22;26216;53.724;9.898;2023-05-10T12:21:18;20.70;73.50
40516;DHT22;26216;53.724;9.898;2023-05-10T12:23:46;20.70;73.30
40516;DHT22;26216;53.724;9.898;2023-05-10T12:26:12;20.70;73.40
40516;DHT22;26216;53.724;9.898;2023-05-10T12:28:38;20.70;73.90
40516;DHT22;26216;53.724;9.898;2023-05-10T12:31:07;20.70;73.70
40516;DHT22;26216;53.724;9.898;2023-05-10T12:33:43;20.70;74.00
40516;DHT22;26216;53.724;9.898;2023-05-10T12:36:12;20.70;74.40
40516;DHT22;26216;53.724;9.898;2023-05-10T12:38:40;20.80;74.40
40516;DHT22;26216;53.724;9.898;2023-05-10T12:41:10;20.80;74.80
40516;DHT22;26216;53.724;9.898;2023-05-10T12:43:37;20.80;75.10
40516;DHT22;26216;53.724;9.898;2023-05-10T12:48:32;20.80;75.30
40516;DHT22;26216;53.724;9.898;2023-05-10T12:51:00;20.90;75.20
40516;DHT22;26216;53.724;9.898;2023-05-10T12:53:26;20.90;75.60
40516;DHT22;26216;53.724;9.898;2023-05-10T12:55:52;20.90;75.50
40516;DHT22;26216;53.724;9.898;2023-05-10T12:58:18;21.00;76.10
40516;DHT22;26216;53.724;9.898;2023-05-10T13:00:45;21.00;76.00
40516;DHT22;26216;53.724;9.898;2023-05-10T13:03:12;21.00;76.30
40516;DHT22;26216;53.724;9.898;2023-05-10T13:05:38;21.10;76.10
40516;DHT22;26216;53.724;9.898;2023-05-10T13:08:04;21.20;76.40
40516;DHT22;26216;53.724;9.898;2023-05-10T13:10:30;21.20;76.50
40516;DHT22;26216;53.724;9.898;2023-05-10T13:12:57;21.30;77.00
40516;DHT22;26216;53.724;9.898;2023-05-10T13:15:24;21.40;77.20
40516;DHT22;26216;53.724;9.898;2023-05-10T13:17:50;21.40;77.30
40516;DHT22;26216;53.724;9.898;2023-05-10T13:20:16;21.50;77.30
40516;DHT22;26216;53.724;9.898;2023-05-10T13:22:45;21.60;77.30
40516;DHT22;26216;53.724;9.898;2023-05-10T13:25:12;21.70;77.20
40516;DHT22;26216;53.724;9.898;2023-05-10T13:27:39;21.80;77.10
40516;DHT22;26216;53.724;9.898;2023-05-10T13:30:09;21.80;77.20
40516;DHT22;26216;53.724;9.898;2023-05-10T13:32:37;22.00;77.50
40516;DHT22;26216;53.724;9.898;2023-05-10T13:35:04;22.00;77.60
40516;DHT22;26216;53.724;9.898;2023-05-10T13:37:31;22.10;77.80
40516;DHT22;26216;53.724;9.898;2023-05-10T13:39:57;22.20;77.70
40516;DHT22;26216;53.724;9.898;2023-05-10T13:42:23;22.30;77.80
40516;DHT22;26216;53.724;9.898;2023-05-10T13:44:50;22.40;78.00
40516;DHT22;26216;53.724;9.898;2023-05-10T13:47:16;22.50;77.70
40516;DHT22;26216;53.724;9.898;2023-05-10T13:49:42;22.60;77.90
40516;DHT22;26216;53.724;9.898;2023-05-10T13:52:08;22.70;77.10
40516;DHT22;26216;53.724;9.898;2023-05-10T13:54:39;22.80;77.20
40516;DHT22;26216;53.724;9.898;2023-05-10T13:57:05;22.80;77.20
40516;DHT22;26216;53.724;9.898;2023-05-10T13:59:32;22.80;76.60
40516;DHT22;26216;53.724;9.898;2023-05-10T14:01:58;22.80;76.00
40516;DHT22;26216;53.724;9.898;2023-05-10T14:04:24;22.90;76.20
40516;DHT22;26216;53.724;9.898;2023-05-10T14:06:50;22.90;77.00
40516;DHT22;26216;53.724;9.898;2023-05-10T14:09:18;22.90;76.30
40516;DHT22;26216;53.724;9.898;2023-05-10T14:11:44;22.90;76.30
40516;DHT22;26216;53.724;9.898;2023-05-10T14:14:11;22.90;75.90
40516;DHT22;26216;53.724;9.898;2023-05-10T14:16:41;22.90;76.00
40516;DHT22;26216;53.724;9.898;2023-05-10T14:19:07;22.90;76.30
40516;DHT22;26216;53.724;9.898;2023-05-10T14:21:33;22.90;75.90
40516;DHT22;26216;53.724;9.898;2023-05-10T14:23:59;22.90;75.80
40516;DHT22;26216;53.724;9.898;2023-05-10T14:26:26;23.00;75.40
40516;DHT22;26216;53.724;9.898;2023-05-10T14:28:53;23.00;75.30
40516;DHT22;26216;53.724;9.898;2023-05-10T14:31:19;22.90;75.50
40516;DHT22;26216;53.724;9.898;2023-05-10T14:33:47;22.80;75.10
40516;DHT22;26216;53.724;9.898;2023-05-10T14:36:13;22.80;75.40
40516;DHT22;26216;53.724;9.898;2023-05-10T14:38:39;22.80;75.00
40516;DHT22;26216;53.724;9.898;2023-05-10T14:41:06;22.80;75.00
40516;DHT22;26216;53.724;9.898;2023-05-10T14:43:32;22.70;74.90
40516;DHT22;26216;53.724;9.898;2023-05-10T14:45:58;22.70;75.00
40516;DHT22;26216;53.724;9.898;2023-05-10T14:48:24;22.60;75.20
40516;DHT22;26216;53.724;9.898;2023-05-10T14:50:50;22.60;75.30
40516;DHT22;26216;53.724;9.898;2023-05-10T14:53:18;22.60;75.80
40516;DHT22;26216;53.724;9.898;2023-05-10T14:55:44;22.50;75.70
40516;DHT22;26216;53.724;9.898;2023-05-10T14:58:09;22.60;75.90
40516;DHT22;26216;53.724;9.898;2023-05-10T15:00:36;22.60;77.00
40516;DHT22;26216;53.724;9.898;2023-05-10T15:03:02;22.60;76.20
40516;DHT22;26216;53.724;9.898;2023-05-10T15:05:29;22.70;76.50
40516;DHT22;26216;53.724;9.898;2023-05-10T15:07:55;22.80;76.40
40516;DHT22;26216;53.724;9.898;2023-05-10T15:10:21;22.80;76.40
40516;DHT22;26216;53.724;9.898;2023-05-10T15:12:47;22.90;76.30
40516;DHT22;26216;53.724;9.898;2023-05-10T15:15:13;22.90;76.00
40516;DHT22;26216;53.724;9.898;2023-05-10T15:17:40;22.90;75.80
40516;DHT22;26216;53.724;9.898;2023-05-10T15:20:07;22.90;75.50
40516;DHT22;26216;53.724;9.898;2023-05-10T15:22:35;22.90;75.40
40516;DHT22;26216;53.724;9.898;2023-05-10T15:25:01;23.00;75.50
40516;DHT22;26216;53.724;9.898;2023-05-10T15:27:27;22.90;75.40
40516;DHT22;26216;53.724;9.898;2023-05-10T15:29:53;22.90;75.60
40516;DHT22;26216;53.724;9.898;2023-05-10T15:32:20;22.90;75.30
40516;DHT22;26216;53.724;9.898;2023-05-10T15:34:46;22.90;75.20
40516;DHT22;26216;53.724;9.898;2023-05-10T15:37:12;22.90;75.30
40516;DHT22;26216;53.724;9.898;2023-05-10T15:39:38;22.80;75.40
40516;DHT22;26216;53.724;9.898;2023-05-10T15:42:04;22.90;75.40
40516;DHT22;26216;53.724;9.898;2023-05-10T15:44:30;22.80;75.70
40516;DHT22;26216;53.724;9.898;2023-05-10T15:46:56;22.90;75.30
40516;DHT22;26216;53.724;9.898;2023-05-10T15:49:22;22.80;75.30
40516;DHT22;26216;53.724;9.898;2023-05-10T15:51:48;22.80;75.00
40516;DHT22;26216;53.724;9.898;2023-05-10T15:54:15;22.80;74.90
40516;DHT22;26216;53.724;9.898;2023-05-10T15:56:41;22.70;74.90
40516;DHT22;26216;53.724;9.898;2023-05-10T15:59:07;22.70;75.00
40516;DHT22;26216;53.724;9.898;2023-05-10T16:01:35;22.60;75.00
40516;DHT22;26216;53.724;9.898;2023-05-10T16:04:01;22.60;75.10